Sonangol Etosha — C6YM5 — position and weather

sailwx.info

Track history (hours):
 
Tides and Currents Weather Stations Pressure Air Temp Water Temp Dewpoint Dewpoint Depression Visibility Wind Speed Wind Dir Waves Ship Positions

Sonangol Etosha

Last reported at 2017-Sep-20 00:00 UTC. Time now 2017-Sep-25 15:34 UTC.
Position N 24°54' E 057°48'.

Length 291 m; draft 9.4 m.

Type: Ship (hazmat cat B). MMSI: 5631106.

Wind from 050 at 5 knots

Barometer 1010.0 mb
Air temperature 30.0 ° C
Visibility: greater than 10.8 NM
Dewpoint 23.1 ° C
Water temperature 30.0 ° C

Date/timePositionNaut miles runAvg speedWind from/ knotsBaromVisibWave heightAir tempDewpointWater temp
2017-Sep-20 00:00N 24°54' E 057°48'16613.8 050 / 51010.010.8 30.023.130.0
2017-Sep-19 12:00N 23°00' E 060°00'21718.1 220 / 71012.0 2.2 28.025.327.0
2017-Sep-19 00:00N 19°24' E 060°24'   250 / 151013.010.8 26.023.226.0
2017-Sep-12 22:10S 19°31' E 040°46'620.3
2017-Sep-12 21:53S 19°37' E 040°44'820.5
2017-Sep-12 21:30S 19°44' E 040°41'7020.1
2017-Sep-12 18:01S 20°51' E 040°20'2019.4
2017-Sep-12 17:01S 21°10' E 040°14'218.9
2017-Sep-12 16:55S 21°12' E 040°13'4919.4
2017-Sep-12 14:25S 21°58' E 039°58'819.8
2017-Sep-12 14:01S 22°06' E 039°56'12319.1
2017-Sep-12 07:35S 24°03' E 039°17'618.6
2017-Sep-12 07:16S 24°09' E 039°15'5818.4
2017-Sep-12 04:07S 25°04' E 038°55'818.3
2017-Sep-12 03:40S 25°12' E 038°52'718.2
2017-Sep-12 03:17S 25°19' E 038°50'918.2
2017-Sep-12 02:48S 25°27' E 038°47'918.2
2017-Sep-12 02:19S 25°35' E 038°44'618.2
2017-Sep-12 02:00S 25°41' E 038°42'1118.2
2017-Sep-12 01:24S 25°51' E 038°38'1118.3
2017-Sep-12 00:48S 26°02' E 038°34'718.3
2017-Sep-12 00:26S 26°08' E 038°31'918.6
2017-Sep-11 23:58S 26°16' E 038°28'918.7
2017-Sep-11 23:30S 26°24' E 038°25'5919.2
2017-Sep-11 20:25S 27°19' E 038°01'819.5
2017-Sep-11 20:00S 27°27' E 037°58'1319.2
2017-Sep-11 19:19S 27°40' E 037°53'  
Track history (hours):
 
Tides and Currents Weather Stations Pressure Air Temp Water Temp Dewpoint Dewpoint Depression Visibility Wind Speed Wind Dir Waves Ship Positions

Sonangol Etosha

Last reported at 2017-Sep-20 00:00 UTC. Time now 2017-Sep-25 15:34 UTC.
Position N 24°54' E 057°48'.

Length 291 m; draft 9.4 m.

Type: Ship (hazmat cat B). MMSI: 5631106.

Wind from 050 at 5 knots

Barometer 1010.0 mb
Air temperature 30.0 ° C
Visibility: greater than 10.8 NM
Dewpoint 23.1 ° C
Water temperature 30.0 ° C

Date/timePositionNaut miles runAvg speedWind from/ knotsBaromVisibWave heightAir tempDewpointWater temp
2017-Sep-20 00:00N 24°54' E 057°48'16613.8 050 / 51010.010.8 30.023.130.0
2017-Sep-19 12:00N 23°00' E 060°00'21718.1 220 / 71012.0 2.2 28.025.327.0
2017-Sep-19 00:00N 19°24' E 060°24'   250 / 151013.010.8 26.023.226.0
2017-Sep-12 22:10S 19°31' E 040°46'620.3
2017-Sep-12 21:53S 19°37' E 040°44'820.5
2017-Sep-12 21:30S 19°44' E 040°41'7020.1
2017-Sep-12 18:01S 20°51' E 040°20'2019.4
2017-Sep-12 17:01S 21°10' E 040°14'218.9
2017-Sep-12 16:55S 21°12' E 040°13'4919.4
2017-Sep-12 14:25S 21°58' E 039°58'819.8
2017-Sep-12 14:01S 22°06' E 039°56'12319.1
2017-Sep-12 07:35S 24°03' E 039°17'618.6
2017-Sep-12 07:16S 24°09' E 039°15'5818.4
2017-Sep-12 04:07S 25°04' E 038°55'818.3
2017-Sep-12 03:40S 25°12' E 038°52'718.2
2017-Sep-12 03:17S 25°19' E 038°50'918.2
2017-Sep-12 02:48S 25°27' E 038°47'918.2
2017-Sep-12 02:19S 25°35' E 038°44'618.2
2017-Sep-12 02:00S 25°41' E 038°42'1118.2
2017-Sep-12 01:24S 25°51' E 038°38'1118.3
2017-Sep-12 00:48S 26°02' E 038°34'718.3
2017-Sep-12 00:26S 26°08' E 038°31'918.6
2017-Sep-11 23:58S 26°16' E 038°28'918.7
2017-Sep-11 23:30S 26°24' E 038°25'5919.2
2017-Sep-11 20:25S 27°19' E 038°01'819.5
2017-Sep-11 20:00S 27°27' E 037°58'1319.2
2017-Sep-11 19:19S 27°40' E 037°53'  

Dump ship's entire track history